sensor_id;sensor_type;location;lat;lon;timestamp;P1;durP1;ratioP1;P2;durP2;ratioP2
6205;SDS011;3136;48.788;9.772;2023-03-03T00:00:38;49.37;;;24.87;;
6205;SDS011;3136;48.788;9.772;2023-03-03T00:03:05;47.70;;;25.33;;
6205;SDS011;3136;48.788;9.772;2023-03-03T00:05:33;53.47;;;26.00;;
6205;SDS011;3136;48.788;9.772;2023-03-03T00:07:59;52.03;;;24.53;;
6205;SDS011;3136;48.788;9.772;2023-03-03T00:10:25;50.20;;;25.30;;
6205;SDS011;3136;48.788;9.772;2023-03-03T00:12:51;52.97;;;24.73;;
6205;SDS011;3136;48.788;9.772;2023-03-03T00:15:18;53.70;;;25.97;;
6205;SDS011;3136;48.788;9.772;2023-03-03T00:17:45;55.40;;;24.33;;
6205;SDS011;3136;48.788;9.772;2023-03-03T00:22:51;48.47;;;23.83;;
6205;SDS011;3136;48.788;9.772;2023-03-03T00:25:30;49.37;;;24.93;;
6205;SDS011;3136;48.788;9.772;2023-03-03T00:28:04;46.60;;;24.13;;
6205;SDS011;3136;48.788;9.772;2023-03-03T00:30:40;50.70;;;25.10;;
6205;SDS011;3136;48.788;9.772;2023-03-03T00:33:11;46.90;;;24.03;;
6205;SDS011;3136;48.788;9.772;2023-03-03T00:35:44;56.83;;;24.77;;
6205;SDS011;3136;48.788;9.772;2023-03-03T00:38:11;49.10;;;24.67;;
6205;SDS011;3136;48.788;9.772;2023-03-03T00:40:40;49.27;;;24.33;;
6205;SDS011;3136;48.788;9.772;2023-03-03T00:43:25;49.20;;;25.00;;
6205;SDS011;3136;48.788;9.772;2023-03-03T00:45:58;47.97;;;24.97;;
6205;SDS011;3136;48.788;9.772;2023-03-03T00:48:25;54.13;;;25.87;;
6205;SDS011;3136;48.788;9.772;2023-03-03T00:50:56;52.60;;;25.67;;
6205;SDS011;3136;48.788;9.772;2023-03-03T00:53:23;49.80;;;25.17;;
6205;SDS011;3136;48.788;9.772;2023-03-03T00:55:51;49.90;;;24.77;;
6205;SDS011;3136;48.788;9.772;2023-03-03T00:58:18;47.07;;;24.37;;
6205;SDS011;3136;48.788;9.772;2023-03-03T01:00:46;59.10;;;25.63;;
6205;SDS011;3136;48.788;9.772;2023-03-03T01:03:20;53.80;;;25.07;;
6205;SDS011;3136;48.788;9.772;2023-03-03T01:05:47;52.27;;;25.03;;
6205;SDS011;3136;48.788;9.772;2023-03-03T01:08:13;54.60;;;26.07;;
6205;SDS011;3136;48.788;9.772;2023-03-03T01:10:41;56.23;;;25.20;;
6205;SDS011;3136;48.788;9.772;2023-03-03T01:13:12;52.20;;;25.53;;
6205;SDS011;3136;48.788;9.772;2023-03-03T01:15:38;51.47;;;25.00;;
6205;SDS011;3136;48.788;9.772;2023-03-03T01:18:05;57.40;;;25.63;;
6205;SDS011;3136;48.788;9.772;2023-03-03T01:20:31;55.23;;;24.93;;
6205;SDS011;3136;48.788;9.772;2023-03-03T01:22:56;60.50;;;26.40;;
6205;SDS011;3136;48.788;9.772;2023-03-03T01:25:22;50.60;;;24.50;;
6205;SDS011;3136;48.788;9.772;2023-03-03T01:27:48;56.10;;;27.00;;
6205;SDS011;3136;48.788;9.772;2023-03-03T01:30:13;57.93;;;26.30;;
6205;SDS011;3136;48.788;9.772;2023-03-03T01:32:39;56.53;;;24.80;;
6205;SDS011;3136;48.788;9.772;2023-03-03T01:35:05;54.77;;;26.63;;
6205;SDS011;3136;48.788;9.772;2023-03-03T01:37:33;54.00;;;26.17;;
6205;SDS011;3136;48.788;9.772;2023-03-03T01:40:02;53.80;;;26.40;;
6205;SDS011;3136;48.788;9.772;2023-03-03T01:42:30;53.60;;;25.97;;
6205;SDS011;3136;48.788;9.772;2023-03-03T01:45:09;57.93;;;26.83;;
6205;SDS011;3136;48.788;9.772;2023-03-03T01:47:36;50.97;;;24.93;;
6205;SDS011;3136;48.788;9.772;2023-03-03T01:50:06;52.83;;;26.47;;
6205;SDS011;3136;48.788;9.772;2023-03-03T01:52:38;54.10;;;25.43;;
6205;SDS011;3136;48.788;9.772;2023-03-03T01:55:15;51.07;;;25.90;;
6205;SDS011;3136;48.788;9.772;2023-03-03T01:57:57;46.73;;;24.27;;
6205;SDS011;3136;48.788;9.772;2023-03-03T02:00:27;55.10;;;25.00;;
6205;SDS011;3136;48.788;9.772;2023-03-03T02:02:54;52.93;;;26.53;;
6205;SDS011;3136;48.788;9.772;2023-03-03T02:05:20;54.73;;;24.73;;
6205;SDS011;3136;48.788;9.772;2023-03-03T02:07:46;50.87;;;24.73;;
6205;SDS011;3136;48.788;9.772;2023-03-03T02:10:12;52.10;;;24.70;;
6205;SDS011;3136;48.788;9.772;2023-03-03T02:15:29;49.77;;;25.30;;
6205;SDS011;3136;48.788;9.772;2023-03-03T02:17:57;53.43;;;25.80;;
6205;SDS011;3136;48.788;9.772;2023-03-03T02:26:04;48.77;;;24.60;;
6205;SDS011;3136;48.788;9.772;2023-03-03T02:28:31;52.63;;;26.93;;
6205;SDS011;3136;48.788;9.772;2023-03-03T02:30:58;48.00;;;25.20;;
6205;SDS011;3136;48.788;9.772;2023-03-03T02:33:25;46.67;;;25.33;;
6205;SDS011;3136;48.788;9.772;2023-03-03T02:35:51;49.43;;;25.53;;
6205;SDS011;3136;48.788;9.772;2023-03-03T02:40:48;53.40;;;25.67;;
6205;SDS011;3136;48.788;9.772;2023-03-03T02:46:18;51.13;;;25.20;;
6205;SDS011;3136;48.788;9.772;2023-03-03T02:48:43;46.57;;;23.97;;
6205;SDS011;3136;48.788;9.772;2023-03-03T02:51:09;48.67;;;24.63;;
6205;SDS011;3136;48.788;9.772;2023-03-03T02:53:35;48.50;;;25.63;;
6205;SDS011;3136;48.788;9.772;2023-03-03T02:56:00;45.37;;;24.47;;
6205;SDS011;3136;48.788;9.772;2023-03-03T02:58:28;44.73;;;25.30;;
6205;SDS011;3136;48.788;9.772;2023-03-03T03:00:54;50.93;;;24.90;;
6205;SDS011;3136;48.788;9.772;2023-03-03T03:03:20;46.20;;;24.70;;
6205;SDS011;3136;48.788;9.772;2023-03-03T03:05:46;53.60;;;26.13;;
6205;SDS011;3136;48.788;9.772;2023-03-03T03:08:12;46.73;;;25.03;;
6205;SDS011;3136;48.788;9.772;2023-03-03T03:10:37;48.07;;;25.37;;
6205;SDS011;3136;48.788;9.772;2023-03-03T03:13:03;45.83;;;24.20;;
6205;SDS011;3136;48.788;9.772;2023-03-03T03:15:29;49.83;;;25.17;;
6205;SDS011;3136;48.788;9.772;2023-03-03T03:17:54;48.33;;;25.30;;
6205;SDS011;3136;48.788;9.772;2023-03-03T03:20:20;46.10;;;24.63;;
6205;SDS011;3136;48.788;9.772;2023-03-03T03:22:46;50.03;;;25.40;;
6205;SDS011;3136;48.788;9.772;2023-03-03T03:25:11;47.97;;;25.83;;
6205;SDS011;3136;48.788;9.772;2023-03-03T03:27:37;43.93;;;24.47;;
6205;SDS011;3136;48.788;9.772;2023-03-03T03:30:02;48.03;;;25.23;;
6205;SDS011;3136;48.788;9.772;2023-03-03T03:32:28;46.27;;;24.40;;
6205;SDS011;3136;48.788;9.772;2023-03-03T03:34:54;47.70;;;25.90;;
6205;SDS011;3136;48.788;9.772;2023-03-03T03:37:19;44.97;;;24.63;;
6205;SDS011;3136;48.788;9.772;2023-03-03T03:39:45;45.90;;;24.77;;
6205;SDS011;3136;48.788;9.772;2023-03-03T03:42:10;44.07;;;24.63;;
6205;SDS011;3136;48.788;9.772;2023-03-03T03:44:36;45.70;;;24.43;;
6205;SDS011;3136;48.788;9.772;2023-03-03T03:47:02;41.50;;;23.50;;
6205;SDS011;3136;48.788;9.772;2023-03-03T03:49:27;48.07;;;24.73;;
6205;SDS011;3136;48.788;9.772;2023-03-03T03:51:53;53.30;;;24.90;;
6205;SDS011;3136;48.788;9.772;2023-03-03T03:54:19;45.23;;;24.37;;
6205;SDS011;3136;48.788;9.772;2023-03-03T03:56:45;48.17;;;24.30;;
6205;SDS011;3136;48.788;9.772;2023-03-03T03:59:10;47.53;;;25.67;;
6205;SDS011;3136;48.788;9.772;2023-03-03T04:01:36;44.73;;;23.63;;
6205;SDS011;3136;48.788;9.772;2023-03-03T04:04:02;45.77;;;24.13;;
6205;SDS011;3136;48.788;9.772;2023-03-03T04:06:28;46.17;;;24.77;;
6205;SDS011;3136;48.788;9.772;2023-03-03T04:08:54;47.77;;;24.00;;
6205;SDS011;3136;48.788;9.772;2023-03-03T04:11:20;51.47;;;23.97;;
6205;SDS011;3136;48.788;9.772;2023-03-03T04:13:45;46.37;;;23.40;;
6205;SDS011;3136;48.788;9.772;2023-03-03T04:16:11;42.53;;;23.07;;
6205;SDS011;3136;48.788;9.772;2023-03-03T04:18:37;45.67;;;24.47;;
6205;SDS011;3136;48.788;9.772;2023-03-03T04:21:02;51.10;;;24.83;;
6205;SDS011;3136;48.788;9.772;2023-03-03T04:23:28;48.77;;;26.20;;
6205;SDS011;3136;48.788;9.772;2023-03-03T04:25:54;47.83;;;23.90;;
6205;SDS011;3136;48.788;9.772;2023-03-03T04:28:19;50.30;;;24.83;;
6205;SDS011;3136;48.788;9.772;2023-03-03T04:30:46;46.00;;;24.43;;
6205;SDS011;3136;48.788;9.772;2023-03-03T04:33:12;47.33;;;24.53;;
6205;SDS011;3136;48.788;9.772;2023-03-03T04:35:37;45.23;;;23.47;;
6205;SDS011;3136;48.788;9.772;2023-03-03T04:38:03;46.30;;;23.63;;
6205;SDS011;3136;48.788;9.772;2023-03-03T04:40:29;47.60;;;24.40;;
6205;SDS011;3136;48.788;9.772;2023-03-03T04:42:55;44.30;;;23.80;;
6205;SDS011;3136;48.788;9.772;2023-03-03T04:45:20;42.40;;;23.93;;
6205;SDS011;3136;48.788;9.772;2023-03-03T04:47:46;46.03;;;24.20;;
6205;SDS011;3136;48.788;9.772;2023-03-03T04:50:11;42.70;;;23.67;;
6205;SDS011;3136;48.788;9.772;2023-03-03T04:52:37;48.47;;;24.37;;
6205;SDS011;3136;48.788;9.772;2023-03-03T04:55:03;45.70;;;23.60;;
6205;SDS011;3136;48.788;9.772;2023-03-03T04:57:29;45.27;;;24.90;;
6205;SDS011;3136;48.788;9.772;2023-03-03T04:59:55;44.10;;;23.37;;
6205;SDS011;3136;48.788;9.772;2023-03-03T05:02:21;46.77;;;24.13;;
6205;SDS011;3136;48.788;9.772;2023-03-03T05:04:46;46.73;;;24.40;;
6205;SDS011;3136;48.788;9.772;2023-03-03T05:07:12;41.20;;;23.93;;
6205;SDS011;3136;48.788;9.772;2023-03-03T05:09:37;46.30;;;23.93;;
6205;SDS011;3136;48.788;9.772;2023-03-03T05:12:03;46.87;;;25.27;;
6205;SDS011;3136;48.788;9.772;2023-03-03T05:14:29;41.57;;;23.10;;
6205;SDS011;3136;48.788;9.772;2023-03-03T05:16:55;43.57;;;24.27;;
6205;SDS011;3136;48.788;9.772;2023-03-03T05:19:21;47.03;;;24.77;;
6205;SDS011;3136;48.788;9.772;2023-03-03T05:21:46;47.20;;;24.87;;
6205;SDS011;3136;48.788;9.772;2023-03-03T05:24:12;44.83;;;23.50;;
6205;SDS011;3136;48.788;9.772;2023-03-03T05:26:38;49.63;;;24.63;;
6205;SDS011;3136;48.788;9.772;2023-03-03T05:29:05;44.30;;;24.73;;
6205;SDS011;3136;48.788;9.772;2023-03-03T05:31:31;44.03;;;23.47;;
6205;SDS011;3136;48.788;9.772;2023-03-03T05:33:57;48.07;;;24.47;;
6205;SDS011;3136;48.788;9.772;2023-03-03T05:36:22;49.97;;;25.73;;
6205;SDS011;3136;48.788;9.772;2023-03-03T05:38:48;49.67;;;25.13;;
6205;SDS011;3136;48.788;9.772;2023-03-03T05:41:14;49.40;;;24.77;;
6205;SDS011;3136;48.788;9.772;2023-03-03T05:43:39;45.20;;;24.50;;
6205;SDS011;3136;48.788;9.772;2023-03-03T05:46:05;46.60;;;24.87;;
6205;SDS011;3136;48.788;9.772;2023-03-03T05:48:30;45.97;;;24.07;;
6205;SDS011;3136;48.788;9.772;2023-03-03T05:50:59;48.67;;;25.00;;
6205;SDS011;3136;48.788;9.772;2023-03-03T05:53:26;51.07;;;24.40;;
6205;SDS011;3136;48.788;9.772;2023-03-03T05:55:52;49.80;;;25.90;;
6205;SDS011;3136;48.788;9.772;2023-03-03T05:58:17;45.50;;;24.90;;
6205;SDS011;3136;48.788;9.772;2023-03-03T06:00:43;46.90;;;24.53;;
6205;SDS011;3136;48.788;9.772;2023-03-03T06:03:08;44.60;;;23.50;;
6205;SDS011;3136;48.788;9.772;2023-03-03T06:05:34;48.53;;;25.30;;
6205;SDS011;3136;48.788;9.772;2023-03-03T06:08:00;48.50;;;24.60;;
6205;SDS011;3136;48.788;9.772;2023-03-03T06:10:25;47.73;;;25.40;;
6205;SDS011;3136;48.788;9.772;2023-03-03T06:12:51;48.83;;;25.23;;
6205;SDS011;3136;48.788;9.772;2023-03-03T06:15:17;45.10;;;24.00;;
6205;SDS011;3136;48.788;9.772;2023-03-03T06:17:43;48.03;;;24.87;;
6205;SDS011;3136;48.788;9.772;2023-03-03T06:20:09;49.90;;;25.17;;
6205;SDS011;3136;48.788;9.772;2023-03-03T06:22:35;47.97;;;24.90;;
6205;SDS011;3136;48.788;9.772;2023-03-03T06:25:00;46.53;;;24.30;;
6205;SDS011;3136;48.788;9.772;2023-03-03T06:27:26;45.70;;;24.30;;
6205;SDS011;3136;48.788;9.772;2023-03-03T06:29:51;47.87;;;24.93;;
6205;SDS011;3136;48.788;9.772;2023-03-03T06:32:17;48.37;;;25.37;;
6205;SDS011;3136;48.788;9.772;2023-03-03T06:34:43;46.60;;;25.03;;
6205;SDS011;3136;48.788;9.772;2023-03-03T06:37:08;46.60;;;24.87;;
6205;SDS011;3136;48.788;9.772;2023-03-03T06:39:34;47.00;;;25.30;;
6205;SDS011;3136;48.788;9.772;2023-03-03T06:41:59;51.23;;;24.87;;
6205;SDS011;3136;48.788;9.772;2023-03-03T06:44:25;50.13;;;25.03;;
6205;SDS011;3136;48.788;9.772;2023-03-03T06:46:50;48.47;;;25.30;;
6205;SDS011;3136;48.788;9.772;2023-03-03T06:49:17;44.67;;;25.07;;
6205;SDS011;3136;48.788;9.772;2023-03-03T06:51:43;49.17;;;26.17;;
6205;SDS011;3136;48.788;9.772;2023-03-03T06:54:20;43.57;;;25.40;;
6205;SDS011;3136;48.788;9.772;2023-03-03T06:56:51;44.53;;;24.10;;
6205;SDS011;3136;48.788;9.772;2023-03-03T06:59:22;50.90;;;25.73;;
6205;SDS011;3136;48.788;9.772;2023-03-03T07:01:48;52.23;;;26.73;;
6205;SDS011;3136;48.788;9.772;2023-03-03T07:06:49;54.00;;;25.67;;
6205;SDS011;3136;48.788;9.772;2023-03-03T07:09:25;45.90;;;25.90;;
6205;SDS011;3136;48.788;9.772;2023-03-03T07:17:58;48.13;;;26.13;;
6205;SDS011;3136;48.788;9.772;2023-03-03T07:20:28;46.07;;;25.77;;
6205;SDS011;3136;48.788;9.772;2023-03-03T07:22:59;50.73;;;26.43;;
6205;SDS011;3136;48.788;9.772;2023-03-03T07:25:33;46.57;;;25.80;;
6205;SDS011;3136;48.788;9.772;2023-03-03T07:30:57;49.60;;;26.80;;
6205;SDS011;3136;48.788;9.772;2023-03-03T07:33:24;49.73;;;27.10;;
6205;SDS011;3136;48.788;9.772;2023-03-03T07:35:53;45.43;;;26.77;;
6205;SDS011;3136;48.788;9.772;2023-03-03T07:41:03;47.13;;;25.67;;
6205;SDS011;3136;48.788;9.772;2023-03-03T07:48:36;46.23;;;25.63;;
6205;SDS011;3136;48.788;9.772;2023-03-03T07:51:13;46.70;;;26.27;;
6205;SDS011;3136;48.788;9.772;2023-03-03T07:53:46;46.63;;;26.20;;
6205;SDS011;3136;48.788;9.772;2023-03-03T07:56:33;46.60;;;26.23;;
6205;SDS011;3136;48.788;9.772;2023-03-03T07:59:01;46.77;;;26.40;;
6205;SDS011;3136;48.788;9.772;2023-03-03T08:01:41;49.00;;;26.00;;
6205;SDS011;3136;48.788;9.772;2023-03-03T08:04:53;49.73;;;26.73;;
6205;SDS011;3136;48.788;9.772;2023-03-03T08:07:10;45.07;;;24.67;;
6205;SDS011;3136;48.788;9.772;2023-03-03T08:09:45;45.20;;;25.43;;
6205;SDS011;3136;48.788;9.772;2023-03-03T08:14:49;47.60;;;26.67;;
6205;SDS011;3136;48.788;9.772;2023-03-03T08:17:18;50.03;;;28.10;;
6205;SDS011;3136;48.788;9.772;2023-03-03T08:19:51;51.07;;;27.17;;
6205;SDS011;3136;48.788;9.772;2023-03-03T08:22:34;49.80;;;27.20;;
6205;SDS011;3136;48.788;9.772;2023-03-03T08:25:00;49.07;;;27.37;;
6205;SDS011;3136;48.788;9.772;2023-03-03T08:27:26;53.03;;;26.77;;
6205;SDS011;3136;48.788;9.772;2023-03-03T08:29:51;52.10;;;29.47;;
6205;SDS011;3136;48.788;9.772;2023-03-03T08:32:17;52.40;;;28.60;;
6205;SDS011;3136;48.788;9.772;2023-03-03T08:34:43;50.87;;;28.57;;
6205;SDS011;3136;48.788;9.772;2023-03-03T08:37:08;50.57;;;28.60;;
6205;SDS011;3136;48.788;9.772;2023-03-03T08:39:34;50.93;;;28.13;;
6205;SDS011;3136;48.788;9.772;2023-03-03T08:41:59;50.77;;;28.63;;
6205;SDS011;3136;48.788;9.772;2023-03-03T08:44:25;51.80;;;29.10;;
6205;SDS011;3136;48.788;9.772;2023-03-03T08:46:50;54.23;;;30.20;;
6205;SDS011;3136;48.788;9.772;2023-03-03T08:49:16;56.40;;;30.13;;
6205;SDS011;3136;48.788;9.772;2023-03-03T08:51:41;53.77;;;29.90;;
6205;SDS011;3136;48.788;9.772;2023-03-03T08:54:07;50.97;;;30.60;;
6205;SDS011;3136;48.788;9.772;2023-03-03T08:56:33;49.40;;;28.43;;
6205;SDS011;3136;48.788;9.772;2023-03-03T08:58:58;54.20;;;28.53;;
6205;SDS011;3136;48.788;9.772;2023-03-03T09:01:24;55.47;;;28.90;;
6205;SDS011;3136;48.788;9.772;2023-03-03T09:03:49;48.60;;;27.90;;
6205;SDS011;3136;48.788;9.772;2023-03-03T09:06:15;56.57;;;27.90;;
6205;SDS011;3136;48.788;9.772;2023-03-03T09:08:40;56.47;;;29.90;;
6205;SDS011;3136;48.788;9.772;2023-03-03T09:11:11;51.33;;;29.20;;
6205;SDS011;3136;48.788;9.772;2023-03-03T09:13:37;52.33;;;28.50;;
6205;SDS011;3136;48.788;9.772;2023-03-03T09:16:09;45.87;;;27.73;;
6205;SDS011;3136;48.788;9.772;2023-03-03T09:18:38;49.80;;;29.17;;
6205;SDS011;3136;48.788;9.772;2023-03-03T09:21:23;51.33;;;28.87;;
6205;SDS011;3136;48.788;9.772;2023-03-03T09:23:59;48.37;;;28.13;;
6205;SDS011;3136;48.788;9.772;2023-03-03T09:29:08;51.63;;;29.77;;
6205;SDS011;3136;48.788;9.772;2023-03-03T09:31:58;49.07;;;28.00;;
6205;SDS011;3136;48.788;9.772;2023-03-03T09:34:35;54.73;;;30.37;;
6205;SDS011;3136;48.788;9.772;2023-03-03T09:37:16;48.83;;;27.97;;
6205;SDS011;3136;48.788;9.772;2023-03-03T09:39:50;49.50;;;26.97;;
6205;SDS011;3136;48.788;9.772;2023-03-03T09:42:33;47.87;;;28.10;;
6205;SDS011;3136;48.788;9.772;2023-03-03T10:01:48;47.77;;;28.00;;
6205;SDS011;3136;48.788;9.772;2023-03-03T10:04:36;45.43;;;28.33;;
6205;SDS011;3136;48.788;9.772;2023-03-03T10:16:06;44.33;;;27.63;;
6205;SDS011;3136;48.788;9.772;2023-03-03T10:18:44;40.43;;;26.13;;
6205;SDS011;3136;48.788;9.772;2023-03-03T10:21:19;37.67;;;25.53;;
6205;SDS011;3136;48.788;9.772;2023-03-03T10:32:15;42.40;;;26.70;;
6205;SDS011;3136;48.788;9.772;2023-03-03T10:40:30;44.73;;;26.57;;
6205;SDS011;3136;48.788;9.772;2023-03-03T10:43:11;42.10;;;25.53;;
6205;SDS011;3136;48.788;9.772;2023-03-03T10:49:02;33.10;;;19.70;;
6205;SDS011;3136;48.788;9.772;2023-03-03T10:51:33;27.37;;;18.03;;
6205;SDS011;3136;48.788;9.772;2023-03-03T10:57:22;28.37;;;19.10;;
6205;SDS011;3136;48.788;9.772;2023-03-03T11:08:13;29.23;;;18.70;;
6205;SDS011;3136;48.788;9.772;2023-03-03T11:14:07;24.90;;;19.23;;
6205;SDS011;3136;48.788;9.772;2023-03-03T11:18:50;27.80;;;19.43;;
6205;SDS011;3136;48.788;9.772;2023-03-03T11:21:45;26.83;;;20.03;;
6205;SDS011;3136;48.788;9.772;2023-03-03T11:24:30;29.67;;;20.27;;
6205;SDS011;3136;48.788;9.772;2023-03-03T11:43:11;25.67;;;18.33;;
6205;SDS011;3136;48.788;9.772;2023-03-03T11:45:50;26.73;;;18.03;;
6205;SDS011;3136;48.788;9.772;2023-03-03T11:48:35;27.53;;;18.10;;
6205;SDS011;3136;48.788;9.772;2023-03-03T11:51:10;25.47;;;18.60;;
6205;SDS011;3136;48.788;9.772;2023-03-03T11:56:16;26.13;;;17.77;;
6205;SDS011;3136;48.788;9.772;2023-03-03T11:58:59;27.27;;;17.20;;
6205;SDS011;3136;48.788;9.772;2023-03-03T12:01:36;24.70;;;17.60;;
6205;SDS011;3136;48.788;9.772;2023-03-03T12:04:09;24.57;;;17.90;;
6205;SDS011;3136;48.788;9.772;2023-03-03T12:06:45;23.40;;;16.70;;
6205;SDS011;3136;48.788;9.772;2023-03-03T12:12:41;24.33;;;16.77;;
6205;SDS011;3136;48.788;9.772;2023-03-03T12:15:18;25.47;;;16.63;;
6205;SDS011;3136;48.788;9.772;2023-03-03T12:18:03;27.63;;;17.57;;
6205;SDS011;3136;48.788;9.772;2023-03-03T12:20:58;21.73;;;16.00;;
6205;SDS011;3136;48.788;9.772;2023-03-03T12:26:11;23.70;;;16.83;;
6205;SDS011;3136;48.788;9.772;2023-03-03T12:28:49;23.10;;;16.30;;
6205;SDS011;3136;48.788;9.772;2023-03-03T12:31:37;21.53;;;15.83;;
6205;SDS011;3136;48.788;9.772;2023-03-03T12:34:24;22.60;;;17.03;;
6205;SDS011;3136;48.788;9.772;2023-03-03T12:37:09;22.17;;;15.83;;
6205;SDS011;3136;48.788;9.772;2023-03-03T12:39:50;20.70;;;15.87;;
6205;SDS011;3136;48.788;9.772;2023-03-03T12:42:32;21.23;;;15.73;;
6205;SDS011;3136;48.788;9.772;2023-03-03T12:56:00;20.30;;;16.37;;
6205;SDS011;3136;48.788;9.772;2023-03-03T13:01:21;21.77;;;16.07;;
6205;SDS011;3136;48.788;9.772;2023-03-03T13:07:16;20.67;;;16.13;;
6205;SDS011;3136;48.788;9.772;2023-03-03T13:15:53;19.67;;;15.83;;
6205;SDS011;3136;48.788;9.772;2023-03-03T13:21:33;19.53;;;15.90;;
6205;SDS011;3136;48.788;9.772;2023-03-03T13:24:22;19.03;;;15.23;;
6205;SDS011;3136;48.788;9.772;2023-03-03T13:29:32;18.03;;;14.83;;
6205;SDS011;3136;48.788;9.772;2023-03-03T13:37:26;22.13;;;16.73;;
6205;SDS011;3136;48.788;9.772;2023-03-03T13:39:57;20.10;;;15.13;;
6205;SDS011;3136;48.788;9.772;2023-03-03T13:42:46;18.90;;;15.40;;
6205;SDS011;3136;48.788;9.772;2023-03-03T13:54:08;21.53;;;15.27;;
6205;SDS011;3136;48.788;9.772;2023-03-03T13:59:30;24.20;;;17.13;;
6205;SDS011;3136;48.788;9.772;2023-03-03T14:05:00;21.10;;;15.37;;
6205;SDS011;3136;48.788;9.772;2023-03-03T14:07:33;19.50;;;15.57;;
6205;SDS011;3136;48.788;9.772;2023-03-03T14:13:08;24.20;;;15.07;;
6205;SDS011;3136;48.788;9.772;2023-03-03T14:18:20;17.73;;;15.67;;
6205;SDS011;3136;48.788;9.772;2023-03-03T14:20:55;18.90;;;15.80;;
6205;SDS011;3136;48.788;9.772;2023-03-03T14:23:43;17.70;;;15.33;;
6205;SDS011;3136;48.788;9.772;2023-03-03T14:26:29;18.37;;;15.57;;
6205;SDS011;3136;48.788;9.772;2023-03-03T14:31:52;18.30;;;15.13;;
6205;SDS011;3136;48.788;9.772;2023-03-03T14:34:38;19.87;;;16.53;;
6205;SDS011;3136;48.788;9.772;2023-03-03T14:37:25;20.67;;;15.93;;
6205;SDS011;3136;48.788;9.772;2023-03-03T14:45:19;19.03;;;14.87;;
6205;SDS011;3136;48.788;9.772;2023-03-03T14:47:55;19.73;;;15.30;;
6205;SDS011;3136;48.788;9.772;2023-03-03T14:50:31;20.60;;;15.03;;
6205;SDS011;3136;48.788;9.772;2023-03-03T14:53:21;20.03;;;15.67;;
6205;SDS011;3136;48.788;9.772;2023-03-03T14:55:50;19.57;;;15.40;;
6205;SDS011;3136;48.788;9.772;2023-03-03T15:01:06;22.53;;;16.67;;
6205;SDS011;3136;48.788;9.772;2023-03-03T15:03:35;21.90;;;16.57;;
6205;SDS011;3136;48.788;9.772;2023-03-03T15:06:08;19.80;;;16.53;;
6205;SDS011;3136;48.788;9.772;2023-03-03T15:08:38;19.20;;;15.90;;
6205;SDS011;3136;48.788;9.772;2023-03-03T15:13:42;23.80;;;17.53;;
6205;SDS011;3136;48.788;9.772;2023-03-03T15:16:10;22.43;;;16.63;;
6205;SDS011;3136;48.788;9.772;2023-03-03T15:21:32;20.83;;;16.47;;
6205;SDS011;3136;48.788;9.772;2023-03-03T15:26:54;28.13;;;18.10;;
6205;SDS011;3136;48.788;9.772;2023-03-03T15:32:13;27.43;;;18.03;;
6205;SDS011;3136;48.788;9.772;2023-03-03T15:45:43;24.63;;;17.23;;
6205;SDS011;3136;48.788;9.772;2023-03-03T15:48:32;26.10;;;18.60;;
6205;SDS011;3136;48.788;9.772;2023-03-03T16:01:52;26.63;;;17.63;;
6205;SDS011;3136;48.788;9.772;2023-03-03T16:04:39;28.30;;;18.50;;
6205;SDS011;3136;48.788;9.772;2023-03-03T16:10:01;29.53;;;18.43;;
6205;SDS011;3136;48.788;9.772;2023-03-03T16:13:07;28.77;;;18.80;;
6205;SDS011;3136;48.788;9.772;2023-03-03T16:15:49;29.43;;;17.47;;
6205;SDS011;3136;48.788;9.772;2023-03-03T16:28:58;25.90;;;15.33;;
6205;SDS011;3136;48.788;9.772;2023-03-03T16:31:51;23.97;;;15.40;;
6205;SDS011;3136;48.788;9.772;2023-03-03T16:37:06;24.40;;;15.37;;
6205;SDS011;3136;48.788;9.772;2023-03-03T16:42:35;27.50;;;16.10;;
6205;SDS011;3136;48.788;9.772;2023-03-03T16:50:21;23.23;;;14.03;;
6205;SDS011;3136;48.788;9.772;2023-03-03T16:55:20;23.33;;;15.20;;
6205;SDS011;3136;48.788;9.772;2023-03-03T17:00:51;25.67;;;15.90;;
6205;SDS011;3136;48.788;9.772;2023-03-03T17:06:36;27.20;;;16.03;;
6205;SDS011;3136;48.788;9.772;2023-03-03T17:09:21;24.73;;;15.90;;
6205;SDS011;3136;48.788;9.772;2023-03-03T17:14:58;25.00;;;15.53;;
6205;SDS011;3136;48.788;9.772;2023-03-03T17:17:45;23.83;;;15.23;;
6205;SDS011;3136;48.788;9.772;2023-03-03T17:20:20;31.70;;;15.87;;
6205;SDS011;3136;48.788;9.772;2023-03-03T17:23:17;30.07;;;15.73;;
6205;SDS011;3136;48.788;9.772;2023-03-03T17:26:00;37.43;;;23.47;;
6205;SDS011;3136;48.788;9.772;2023-03-03T17:28:47;30.47;;;17.17;;
6205;SDS011;3136;48.788;9.772;2023-03-03T17:34:05;26.20;;;16.00;;
6205;SDS011;3136;48.788;9.772;2023-03-03T17:36:54;26.53;;;16.27;;
6205;SDS011;3136;48.788;9.772;2023-03-03T17:39:47;28.40;;;16.20;;
6205;SDS011;3136;48.788;9.772;2023-03-03T17:47:41;23.90;;;15.57;;
6205;SDS011;3136;48.788;9.772;2023-03-03T17:56:15;26.17;;;16.47;;
6205;SDS011;3136;48.788;9.772;2023-03-03T18:04:58;28.57;;;16.97;;
6205;SDS011;3136;48.788;9.772;2023-03-03T18:07:56;30.03;;;16.63;;
6205;SDS011;3136;48.788;9.772;2023-03-03T18:24:13;33.20;;;18.20;;
6205;SDS011;3136;48.788;9.772;2023-03-03T18:26:52;33.50;;;19.10;;
6205;SDS011;3136;48.788;9.772;2023-03-03T18:29:22;31.57;;;17.97;;
6205;SDS011;3136;48.788;9.772;2023-03-03T18:39:47;32.97;;;17.83;;
6205;SDS011;3136;48.788;9.772;2023-03-03T18:44:40;31.97;;;19.07;;
6205;SDS011;3136;48.788;9.772;2023-03-03T18:47:07;31.97;;;18.53;;
6205;SDS011;3136;48.788;9.772;2023-03-03T18:49:49;29.40;;;18.17;;
6205;SDS011;3136;48.788;9.772;2023-03-03T18:52:30;39.07;;;21.30;;
6205;SDS011;3136;48.788;9.772;2023-03-03T18:57:35;32.37;;;19.07;;
6205;SDS011;3136;48.788;9.772;2023-03-03T19:00:13;37.20;;;19.93;;
6205;SDS011;3136;48.788;9.772;2023-03-03T19:02:52;38.30;;;17.77;;
6205;SDS011;3136;48.788;9.772;2023-03-03T19:05:30;33.50;;;18.63;;
6205;SDS011;3136;48.788;9.772;2023-03-03T19:08:15;33.10;;;19.27;;
6205;SDS011;3136;48.788;9.772;2023-03-03T19:10:48;33.87;;;19.30;;
6205;SDS011;3136;48.788;9.772;2023-03-03T19:15:57;36.53;;;19.90;;
6205;SDS011;3136;48.788;9.772;2023-03-03T19:18:57;41.87;;;22.30;;
6205;SDS011;3136;48.788;9.772;2023-03-03T19:21:35;37.03;;;20.67;;
6205;SDS011;3136;48.788;9.772;2023-03-03T19:31:54;35.67;;;20.20;;
6205;SDS011;3136;48.788;9.772;2023-03-03T19:34:48;42.43;;;23.10;;
6205;SDS011;3136;48.788;9.772;2023-03-03T19:37:25;36.60;;;20.17;;
6205;SDS011;3136;48.788;9.772;2023-03-03T19:54:05;39.20;;;20.30;;
6205;SDS011;3136;48.788;9.772;2023-03-03T19:56:40;39.97;;;21.97;;
6205;SDS011;3136;48.788;9.772;2023-03-03T19:59:32;40.23;;;22.30;;
6205;SDS011;3136;48.788;9.772;2023-03-03T20:07:53;37.10;;;21.23;;
6205;SDS011;3136;48.788;9.772;2023-03-03T20:10:23;40.53;;;20.80;;
6205;SDS011;3136;48.788;9.772;2023-03-03T20:13:03;38.07;;;21.23;;
6205;SDS011;3136;48.788;9.772;2023-03-03T20:23:43;40.93;;;22.10;;
6205;SDS011;3136;48.788;9.772;2023-03-03T20:27:15;39.93;;;21.40;;
6205;SDS011;3136;48.788;9.772;2023-03-03T20:29:56;37.40;;;21.43;;
6205;SDS011;3136;48.788;9.772;2023-03-03T20:33:30;40.13;;;21.20;;
6205;SDS011;3136;48.788;9.772;2023-03-03T20:35:43;45.07;;;22.67;;
6205;SDS011;3136;48.788;9.772;2023-03-03T20:43:43;42.60;;;22.17;;
6205;SDS011;3136;48.788;9.772;2023-03-03T21:00:33;43.37;;;24.00;;
6205;SDS011;3136;48.788;9.772;2023-03-03T21:05:56;47.07;;;22.67;;
6205;SDS011;3136;48.788;9.772;2023-03-03T21:08:45;40.57;;;22.47;;
6205;SDS011;3136;48.788;9.772;2023-03-03T21:11:17;41.90;;;22.43;;
6205;SDS011;3136;48.788;9.772;2023-03-03T21:13:53;42.60;;;23.57;;
6205;SDS011;3136;48.788;9.772;2023-03-03T21:21:35;44.90;;;23.00;;
6205;SDS011;3136;48.788;9.772;2023-03-03T21:24:05;41.33;;;22.70;;
6205;SDS011;3136;48.788;9.772;2023-03-03T21:31:56;51.17;;;27.17;;
6205;SDS011;3136;48.788;9.772;2023-03-03T21:34:34;47.07;;;24.73;;